sensor_id;sensor_type;location;lat;lon;timestamp;temperature;humidity
9810;DHT22;4944;52.514;13.192;2023-05-14T00:00:59;16.90;97.90
9810;DHT22;4944;52.514;13.192;2023-05-14T00:03:25;16.90;98.00
9810;DHT22;4944;52.514;13.192;2023-05-14T00:05:54;16.90;98.00
9810;DHT22;4944;52.514;13.192;2023-05-14T00:08:20;16.90;98.10
9810;DHT22;4944;52.514;13.192;2023-05-14T00:10:47;16.90;98.10
9810;DHT22;4944;52.514;13.192;2023-05-14T00:13:14;16.90;98.20
9810;DHT22;4944;52.514;13.192;2023-05-14T00:15:41;16.90;98.20
9810;DHT22;4944;52.514;13.192;2023-05-14T00:18:09;16.80;98.70
9810;DHT22;4944;52.514;13.192;2023-05-14T00:20:36;16.80;98.60
9810;DHT22;4944;52.514;13.192;2023-05-14T00:23:04;16.70;98.80
9810;DHT22;4944;52.514;13.192;2023-05-14T00:25:31;16.70;99.00
9810;DHT22;4944;52.514;13.192;2023-05-14T00:27:58;16.70;99.10
9810;DHT22;4944;52.514;13.192;2023-05-14T00:30:25;16.70;99.20
9810;DHT22;4944;52.514;13.192;2023-05-14T00:32:52;16.60;99.10
9810;DHT22;4944;52.514;13.192;2023-05-14T00:35:19;16.60;99.20
9810;DHT22;4944;52.514;13.192;2023-05-14T00:37:46;16.50;99.30
9810;DHT22;4944;52.514;13.192;2023-05-14T00:40:15;16.50;99.50
9810;DHT22;4944;52.514;13.192;2023-05-14T00:42:42;16.50;99.80
9810;DHT22;4944;52.514;13.192;2023-05-14T00:45:09;16.50;99.70
9810;DHT22;4944;52.514;13.192;2023-05-14T00:47:36;16.40;99.70
9810;DHT22;4944;52.514;13.192;2023-05-14T00:50:05;16.40;99.70
9810;DHT22;4944;52.514;13.192;2023-05-14T00:52:32;16.40;99.90
9810;DHT22;4944;52.514;13.192;2023-05-14T00:55:00;16.40;99.90
9810;DHT22;4944;52.514;13.192;2023-05-14T00:57:30;16.40;99.90
9810;DHT22;4944;52.514;13.192;2023-05-14T00:59:57;16.40;99.90
9810;DHT22;4944;52.514;13.192;2023-05-14T01:02:24;16.30;99.90
9810;DHT22;4944;52.514;13.192;2023-05-14T01:04:51;16.30;99.90
9810;DHT22;4944;52.514;13.192;2023-05-14T01:07:24;16.20;99.90
9810;DHT22;4944;52.514;13.192;2023-05-14T01:09:55;16.20;99.90
9810;DHT22;4944;52.514;13.192;2023-05-14T01:12:32;16.20;99.90
9810;DHT22;4944;52.514;13.192;2023-05-14T01:15:07;16.20;99.90
9810;DHT22;4944;52.514;13.192;2023-05-14T01:17:39;16.20;99.90
9810;DHT22;4944;52.514;13.192;2023-05-14T01:20:08;16.10;99.90
9810;DHT22;4944;52.514;13.192;2023-05-14T01:22:37;16.10;99.90
9810;DHT22;4944;52.514;13.192;2023-05-14T01:25:05;16.10;99.90
9810;DHT22;4944;52.514;13.192;2023-05-14T01:27:36;16.10;99.90
9810;DHT22;4944;52.514;13.192;2023-05-14T01:30:13;16.10;99.90
9810;DHT22;4944;52.514;13.192;2023-05-14T01:32:46;16.10;99.90
9810;DHT22;4944;52.514;13.192;2023-05-14T01:35:14;16.00;99.90
9810;DHT22;4944;52.514;13.192;2023-05-14T01:37:43;16.00;99.90
9810;DHT22;4944;52.514;13.192;2023-05-14T01:40:11;16.00;99.90
9810;DHT22;4944;52.514;13.192;2023-05-14T01:42:38;16.00;99.90
9810;DHT22;4944;52.514;13.192;2023-05-14T01:45:07;16.00;99.90
9810;DHT22;4944;52.514;13.192;2023-05-14T01:47:34;16.00;99.90
9810;DHT22;4944;52.514;13.192;2023-05-14T01:50:01;15.90;99.90
9810;DHT22;4944;52.514;13.192;2023-05-14T01:52:28;15.90;99.90
9810;DHT22;4944;52.514;13.192;2023-05-14T01:54:56;15.90;99.80
9810;DHT22;4944;52.514;13.192;2023-05-14T01:57:24;15.90;99.80
9810;DHT22;4944;52.514;13.192;2023-05-14T01:59:51;15.80;99.90
9810;DHT22;4944;52.514;13.192;2023-05-14T02:02:18;15.90;99.90
9810;DHT22;4944;52.514;13.192;2023-05-14T02:04:45;15.80;99.90
9810;DHT22;4944;52.514;13.192;2023-05-14T02:07:12;15.80;99.90
9810;DHT22;4944;52.514;13.192;2023-05-14T02:09:39;15.80;99.90
9810;DHT22;4944;52.514;13.192;2023-05-14T02:12:08;15.60;99.90
9810;DHT22;4944;52.514;13.192;2023-05-14T02:14:35;15.60;99.90
9810;DHT22;4944;52.514;13.192;2023-05-14T02:17:02;15.60;99.90
9810;DHT22;4944;52.514;13.192;2023-05-14T02:19:29;15.50;99.90
9810;DHT22;4944;52.514;13.192;2023-05-14T02:21:58;15.50;99.90
9810;DHT22;4944;52.514;13.192;2023-05-14T02:24:25;15.40;99.90
9810;DHT22;4944;52.514;13.192;2023-05-14T02:26:52;15.40;99.90
9810;DHT22;4944;52.514;13.192;2023-05-14T02:29:20;15.40;99.90
9810;DHT22;4944;52.514;13.192;2023-05-14T02:31:47;15.40;99.90
9810;DHT22;4944;52.514;13.192;2023-05-14T02:34:14;15.50;99.90
9810;DHT22;4944;52.514;13.192;2023-05-14T02:36:41;15.50;99.90
9810;DHT22;4944;52.514;13.192;2023-05-14T02:39:08;15.50;99.90
9810;DHT22;4944;52.514;13.192;2023-05-14T02:41:35;15.50;99.90
9810;DHT22;4944;52.514;13.192;2023-05-14T02:44:02;15.60;99.90
9810;DHT22;4944;52.514;13.192;2023-05-14T02:46:31;15.60;99.90
9810;DHT22;4944;52.514;13.192;2023-05-14T02:48:58;15.60;99.90
9810;DHT22;4944;52.514;13.192;2023-05-14T02:51:25;15.60;99.90
9810;DHT22;4944;52.514;13.192;2023-05-14T02:53:51;15.60;99.90
9810;DHT22;4944;52.514;13.192;2023-05-14T02:56:18;15.60;99.90
9810;DHT22;4944;52.514;13.192;2023-05-14T02:58:45;15.60;99.90
9810;DHT22;4944;52.514;13.192;2023-05-14T03:01:12;15.60;99.90
9810;DHT22;4944;52.514;13.192;2023-05-14T03:03:40;15.60;99.90
9810;DHT22;4944;52.514;13.192;2023-05-14T03:06:07;15.70;99.90
9810;DHT22;4944;52.514;13.192;2023-05-14T03:08:34;15.60;99.90
9810;DHT22;4944;52.514;13.192;2023-05-14T03:11:01;15.60;99.90
9810;DHT22;4944;52.514;13.192;2023-05-14T03:13:28;15.60;99.90
9810;DHT22;4944;52.514;13.192;2023-05-14T03:15:55;15.60;99.90
9810;DHT22;4944;52.514;13.192;2023-05-14T03:18:22;15.60;99.90
9810;DHT22;4944;52.514;13.192;2023-05-14T03:20:50;15.70;99.90
9810;DHT22;4944;52.514;13.192;2023-05-14T03:23:17;15.70;99.90
9810;DHT22;4944;52.514;13.192;2023-05-14T03:25:44;15.70;99.90
9810;DHT22;4944;52.514;13.192;2023-05-14T03:28:11;15.70;99.90
9810;DHT22;4944;52.514;13.192;2023-05-14T03:30:38;15.60;99.90
9810;DHT22;4944;52.514;13.192;2023-05-14T03:33:05;15.70;99.90
9810;DHT22;4944;52.514;13.192;2023-05-14T03:35:32;15.70;99.90
9810;DHT22;4944;52.514;13.192;2023-05-14T03:38:00;15.60;99.90
9810;DHT22;4944;52.514;13.192;2023-05-14T03:40:27;15.60;99.90
9810;DHT22;4944;52.514;13.192;2023-05-14T03:42:54;15.60;99.90
9810;DHT22;4944;52.514;13.192;2023-05-14T03:45:21;15.70;99.90
9810;DHT22;4944;52.514;13.192;2023-05-14T03:47:48;15.70;99.90
9810;DHT22;4944;52.514;13.192;2023-05-14T03:50:15;15.70;99.90
9810;DHT22;4944;52.514;13.192;2023-05-14T03:52:41;15.60;99.90
9810;DHT22;4944;52.514;13.192;2023-05-14T03:55:10;15.60;99.90
9810;DHT22;4944;52.514;13.192;2023-05-14T03:57:37;15.50;99.90
9810;DHT22;4944;52.514;13.192;2023-05-14T04:00:05;15.60;99.90
9810;DHT22;4944;52.514;13.192;2023-05-14T04:02:32;15.60;99.90
9810;DHT22;4944;52.514;13.192;2023-05-14T04:04:59;15.50;99.90
9810;DHT22;4944;52.514;13.192;2023-05-14T04:07:26;15.50;99.90
9810;DHT22;4944;52.514;13.192;2023-05-14T04:09:53;15.60;99.90
9810;DHT22;4944;52.514;13.192;2023-05-14T04:12:21;15.60;99.90
9810;DHT22;4944;52.514;13.192;2023-05-14T04:14:48;15.60;99.90
9810;DHT22;4944;52.514;13.192;2023-05-14T04:17:15;15.60;99.90
9810;DHT22;4944;52.514;13.192;2023-05-14T04:19:41;15.70;99.90
9810;DHT22;4944;52.514;13.192;2023-05-14T04:22:08;15.70;99.90
9810;DHT22;4944;52.514;13.192;2023-05-14T04:24:35;15.70;99.90
9810;DHT22;4944;52.514;13.192;2023-05-14T04:27:03;15.70;99.90
9810;DHT22;4944;52.514;13.192;2023-05-14T04:29:31;15.70;99.90
9810;DHT22;4944;52.514;13.192;2023-05-14T04:31:58;15.70;99.90
9810;DHT22;4944;52.514;13.192;2023-05-14T04:34:25;15.70;99.90
9810;DHT22;4944;52.514;13.192;2023-05-14T04:36:52;15.70;99.90
9810;DHT22;4944;52.514;13.192;2023-05-14T04:39:21;15.70;99.90
9810;DHT22;4944;52.514;13.192;2023-05-14T04:41:48;15.70;99.90
9810;DHT22;4944;52.514;13.192;2023-05-14T04:44:14;15.70;99.90
9810;DHT22;4944;52.514;13.192;2023-05-14T04:46:43;15.60;99.90
9810;DHT22;4944;52.514;13.192;2023-05-14T04:49:10;15.50;99.90
9810;DHT22;4944;52.514;13.192;2023-05-14T04:51:36;15.50;99.90
9810;DHT22;4944;52.514;13.192;2023-05-14T04:54:03;15.50;99.90
9810;DHT22;4944;52.514;13.192;2023-05-14T04:56:30;15.50;99.90
9810;DHT22;4944;52.514;13.192;2023-05-14T04:58:57;15.60;99.90
9810;DHT22;4944;52.514;13.192;2023-05-14T05:01:24;15.60;99.90
9810;DHT22;4944;52.514;13.192;2023-05-14T05:03:52;15.60;99.90
9810;DHT22;4944;52.514;13.192;2023-05-14T05:06:19;15.70;99.90
9810;DHT22;4944;52.514;13.192;2023-05-14T05:08:46;15.80;99.80
9810;DHT22;4944;52.514;13.192;2023-05-14T05:11:13;15.90;99.40
9810;DHT22;4944;52.514;13.192;2023-05-14T05:13:40;15.90;99.30
9810;DHT22;4944;52.514;13.192;2023-05-14T05:16:07;15.90;98.70
9810;DHT22;4944;52.514;13.192;2023-05-14T05:18:34;15.90;98.60
9810;DHT22;4944;52.514;13.192;2023-05-14T05:21:02;16.00;98.70
9810;DHT22;4944;52.514;13.192;2023-05-14T05:23:29;16.10;98.60
9810;DHT22;4944;52.514;13.192;2023-05-14T05:25:56;16.10;98.20
9810;DHT22;4944;52.514;13.192;2023-05-14T05:28:23;16.20;97.80
9810;DHT22;4944;52.514;13.192;2023-05-14T05:30:50;16.30;97.30
9810;DHT22;4944;52.514;13.192;2023-05-14T05:33:17;16.40;97.20
9810;DHT22;4944;52.514;13.192;2023-05-14T05:35:44;16.40;96.80
9810;DHT22;4944;52.514;13.192;2023-05-14T05:38:14;16.50;96.40
9810;DHT22;4944;52.514;13.192;2023-05-14T05:40:42;16.50;96.30
9810;DHT22;4944;52.514;13.192;2023-05-14T05:43:09;16.60;96.00
9810;DHT22;4944;52.514;13.192;2023-05-14T05:45:38;16.60;95.90
9810;DHT22;4944;52.514;13.192;2023-05-14T05:48:05;16.70;95.30
9810;DHT22;4944;52.514;13.192;2023-05-14T05:50:32;16.70;95.10
9810;DHT22;4944;52.514;13.192;2023-05-14T05:52:59;16.80;95.20
9810;DHT22;4944;52.514;13.192;2023-05-14T05:55:28;16.80;94.70
9810;DHT22;4944;52.514;13.192;2023-05-14T05:57:56;16.80;94.40
9810;DHT22;4944;52.514;13.192;2023-05-14T06:00:23;16.90;94.70
9810;DHT22;4944;52.514;13.192;2023-05-14T06:02:51;16.90;94.70
9810;DHT22;4944;52.514;13.192;2023-05-14T06:05:18;16.90;94.20
9810;DHT22;4944;52.514;13.192;2023-05-14T06:07:45;17.00;94.10
9810;DHT22;4944;52.514;13.192;2023-05-14T06:10:11;17.00;93.80
9810;DHT22;4944;52.514;13.192;2023-05-14T06:12:40;17.00;94.10
9810;DHT22;4944;52.514;13.192;2023-05-14T06:15:07;17.00;94.10
9810;DHT22;4944;52.514;13.192;2023-05-14T06:17:34;17.10;93.60
9810;DHT22;4944;52.514;13.192;2023-05-14T06:20:01;17.10;93.60
9810;DHT22;4944;52.514;13.192;2023-05-14T06:22:30;17.20;93.90
9810;DHT22;4944;52.514;13.192;2023-05-14T06:24:56;17.20;94.00
9810;DHT22;4944;52.514;13.192;2023-05-14T06:27:23;17.30;94.10
9810;DHT22;4944;52.514;13.192;2023-05-14T06:29:52;17.30;94.20
9810;DHT22;4944;52.514;13.192;2023-05-14T06:32:18;17.40;94.30
9810;DHT22;4944;52.514;13.192;2023-05-14T06:34:45;17.40;94.90
9810;DHT22;4944;52.514;13.192;2023-05-14T06:37:12;17.50;94.90
9810;DHT22;4944;52.514;13.192;2023-05-14T06:39:39;17.50;93.90
9810;DHT22;4944;52.514;13.192;2023-05-14T06:42:11;17.60;93.80
9810;DHT22;4944;52.514;13.192;2023-05-14T06:44:37;17.60;94.00
9810;DHT22;4944;52.514;13.192;2023-05-14T06:47:07;17.60;94.10
9810;DHT22;4944;52.514;13.192;2023-05-14T06:49:34;17.60;94.10
9810;DHT22;4944;52.514;13.192;2023-05-14T06:52:01;17.60;93.60
9810;DHT22;4944;52.514;13.192;2023-05-14T06:54:28;17.70;93.00
9810;DHT22;4944;52.514;13.192;2023-05-14T06:56:55;17.70;93.00
9810;DHT22;4944;52.514;13.192;2023-05-14T06:59:22;17.70;93.20
9810;DHT22;4944;52.514;13.192;2023-05-14T07:01:49;17.80;92.90
9810;DHT22;4944;52.514;13.192;2023-05-14T07:04:17;17.80;93.30
9810;DHT22;4944;52.514;13.192;2023-05-14T07:06:44;17.90;93.10
9810;DHT22;4944;52.514;13.192;2023-05-14T07:09:11;17.90;92.90
9810;DHT22;4944;52.514;13.192;2023-05-14T07:11:38;17.90;92.80
9810;DHT22;4944;52.514;13.192;2023-05-14T07:14:06;17.90;93.00
9810;DHT22;4944;52.514;13.192;2023-05-14T07:16:33;18.00;92.80
9810;DHT22;4944;52.514;13.192;2023-05-14T07:19:00;18.00;93.00
9810;DHT22;4944;52.514;13.192;2023-05-14T07:21:28;18.00;93.20
9810;DHT22;4944;52.514;13.192;2023-05-14T07:23:56;18.10;93.30
9810;DHT22;4944;52.514;13.192;2023-05-14T07:26:23;18.10;93.40
9810;DHT22;4944;52.514;13.192;2023-05-14T07:28:50;18.20;94.10
9810;DHT22;4944;52.514;13.192;2023-05-14T07:31:17;18.20;93.40
9810;DHT22;4944;52.514;13.192;2023-05-14T07:33:44;18.20;92.70
9810;DHT22;4944;52.514;13.192;2023-05-14T07:36:11;18.30;93.00
9810;DHT22;4944;52.514;13.192;2023-05-14T07:38:39;18.30;92.90
9810;DHT22;4944;52.514;13.192;2023-05-14T07:41:06;18.30;92.80
9810;DHT22;4944;52.514;13.192;2023-05-14T07:43:33;18.40;92.70
9810;DHT22;4944;52.514;13.192;2023-05-14T07:46:00;18.40;92.60
9810;DHT22;4944;52.514;13.192;2023-05-14T07:48:27;18.40;92.40
9810;DHT22;4944;52.514;13.192;2023-05-14T07:50:54;18.50;92.50
9810;DHT22;4944;52.514;13.192;2023-05-14T07:53:21;18.50;93.30
9810;DHT22;4944;52.514;13.192;2023-05-14T07:55:49;18.50;93.60
9810;DHT22;4944;52.514;13.192;2023-05-14T07:58:16;18.60;93.30
9810;DHT22;4944;52.514;13.192;2023-05-14T08:00:43;18.60;93.10
9810;DHT22;4944;52.514;13.192;2023-05-14T08:03:10;18.60;93.60
9810;DHT22;4944;52.514;13.192;2023-05-14T08:05:37;18.70;93.40
9810;DHT22;4944;52.514;13.192;2023-05-14T08:08:04;18.80;92.50
9810;DHT22;4944;52.514;13.192;2023-05-14T08:10:31;18.90;92.30
9810;DHT22;4944;52.514;13.192;2023-05-14T08:12:59;18.90;93.00
9810;DHT22;4944;52.514;13.192;2023-05-14T08:15:26;19.10;93.00
9810;DHT22;4944;52.514;13.192;2023-05-14T08:17:53;19.10;92.50
9810;DHT22;4944;52.514;13.192;2023-05-14T08:20:20;19.20;93.10
9810;DHT22;4944;52.514;13.192;2023-05-14T08:22:47;19.20;91.80
9810;DHT22;4944;52.514;13.192;2023-05-14T08:25:14;19.20;92.10
9810;DHT22;4944;52.514;13.192;2023-05-14T08:27:41;19.30;91.70
9810;DHT22;4944;52.514;13.192;2023-05-14T08:30:10;19.30;91.40
9810;DHT22;4944;52.514;13.192;2023-05-14T08:32:37;19.40;90.50
9810;DHT22;4944;52.514;13.192;2023-05-14T08:35:04;19.40;90.60
9810;DHT22;4944;52.514;13.192;2023-05-14T08:37:31;19.40;90.10
9810;DHT22;4944;52.514;13.192;2023-05-14T08:39:58;19.40;89.80
9810;DHT22;4944;52.514;13.192;2023-05-14T08:42:25;19.50;90.00
9810;DHT22;4944;52.514;13.192;2023-05-14T08:44:59;19.50;90.00
9810;DHT22;4944;52.514;13.192;2023-05-14T08:47:29;19.60;91.30
9810;DHT22;4944;52.514;13.192;2023-05-14T08:50:00;19.70;91.40
9810;DHT22;4944;52.514;13.192;2023-05-14T08:52:29;19.70;90.50
9810;DHT22;4944;52.514;13.192;2023-05-14T08:54:58;19.70;88.60
9810;DHT22;4944;52.514;13.192;2023-05-14T08:57:27;19.70;88.60
9810;DHT22;4944;52.514;13.192;2023-05-14T08:59:54;19.70;88.80
9810;DHT22;4944;52.514;13.192;2023-05-14T09:02:23;19.80;89.10
9810;DHT22;4944;52.514;13.192;2023-05-14T09:04:54;19.80;87.60
9810;DHT22;4944;52.514;13.192;2023-05-14T09:07:22;19.80;87.70
9810;DHT22;4944;52.514;13.192;2023-05-14T09:09:50;19.90;88.30
9810;DHT22;4944;52.514;13.192;2023-05-14T09:12:17;19.90;89.00
9810;DHT22;4944;52.514;13.192;2023-05-14T09:14:46;20.00;89.00
9810;DHT22;4944;52.514;13.192;2023-05-14T09:17:14;20.10;86.60
9810;DHT22;4944;52.514;13.192;2023-05-14T09:19:41;20.20;88.10
9810;DHT22;4944;52.514;13.192;2023-05-14T09:22:11;20.20;87.90
9810;DHT22;4944;52.514;13.192;2023-05-14T09:24:39;20.30;87.80
9810;DHT22;4944;52.514;13.192;2023-05-14T09:27:06;20.30;86.30
9810;DHT22;4944;52.514;13.192;2023-05-14T09:29:34;20.40;85.60
9810;DHT22;4944;52.514;13.192;2023-05-14T09:32:01;20.50;85.20
9810;DHT22;4944;52.514;13.192;2023-05-14T09:34:33;20.60;85.90
9810;DHT22;4944;52.514;13.192;2023-05-14T09:37:04;20.70;86.70
9810;DHT22;4944;52.514;13.192;2023-05-14T09:39:33;20.80;87.00
9810;DHT22;4944;52.514;13.192;2023-05-14T09:42:01;20.90;86.10
9810;DHT22;4944;52.514;13.192;2023-05-14T09:44:28;21.00;85.90
9810;DHT22;4944;52.514;13.192;2023-05-14T09:46:55;21.10;87.90
9810;DHT22;4944;52.514;13.192;2023-05-14T09:49:22;21.10;84.10
9810;DHT22;4944;52.514;13.192;2023-05-14T09:51:49;21.10;83.40
9810;DHT22;4944;52.514;13.192;2023-05-14T09:54:16;21.10;83.70
9810;DHT22;4944;52.514;13.192;2023-05-14T09:56:45;21.10;83.80
9810;DHT22;4944;52.514;13.192;2023-05-14T09:59:12;21.10;82.60
9810;DHT22;4944;52.514;13.192;2023-05-14T10:01:41;21.20;86.20
9810;DHT22;4944;52.514;13.192;2023-05-14T10:04:09;21.30;87.00
9810;DHT22;4944;52.514;13.192;2023-05-14T10:06:37;21.30;86.40
9810;DHT22;4944;52.514;13.192;2023-05-14T10:09:09;21.40;84.80
9810;DHT22;4944;52.514;13.192;2023-05-14T10:11:39;21.50;87.30
9810;DHT22;4944;52.514;13.192;2023-05-14T10:14:12;21.50;84.10
9810;DHT22;4944;52.514;13.192;2023-05-14T10:16:46;21.40;82.90
9810;DHT22;4944;52.514;13.192;2023-05-14T10:19:15;21.30;84.10
9810;DHT22;4944;52.514;13.192;2023-05-14T10:21:44;21.20;83.50
9810;DHT22;4944;52.514;13.192;2023-05-14T10:24:13;21.10;84.40
9810;DHT22;4944;52.514;13.192;2023-05-14T10:26:41;21.00;85.30
9810;DHT22;4944;52.514;13.192;2023-05-14T10:29:10;20.90;84.40
9810;DHT22;4944;52.514;13.192;2023-05-14T10:31:47;20.80;84.20
9810;DHT22;4944;52.514;13.192;2023-05-14T10:34:31;20.70;84.10
9810;DHT22;4944;52.514;13.192;2023-05-14T10:36:59;20.60;84.20
9810;DHT22;4944;52.514;13.192;2023-05-14T10:39:43;20.50;84.40
9810;DHT22;4944;52.514;13.192;2023-05-14T10:42:11;20.40;85.00
9810;DHT22;4944;52.514;13.192;2023-05-14T10:44:48;20.40;84.90
9810;DHT22;4944;52.514;13.192;2023-05-14T10:47:16;20.30;85.70
9810;DHT22;4944;52.514;13.192;2023-05-14T10:49:44;20.20;87.60
9810;DHT22;4944;52.514;13.192;2023-05-14T10:52:15;20.10;86.30
9810;DHT22;4944;52.514;13.192;2023-05-14T10:54:48;20.10;86.70
9810;DHT22;4944;52.514;13.192;2023-05-14T10:57:17;20.00;87.20
9810;DHT22;4944;52.514;13.192;2023-05-14T10:59:46;20.00;86.60
9810;DHT22;4944;52.514;13.192;2023-05-14T11:02:24;20.00;86.20
9810;DHT22;4944;52.514;13.192;2023-05-14T11:04:55;20.00;87.00
9810;DHT22;4944;52.514;13.192;2023-05-14T11:07:29;20.00;87.60
9810;DHT22;4944;52.514;13.192;2023-05-14T11:10:00;20.00;88.00
9810;DHT22;4944;52.514;13.192;2023-05-14T11:12:27;19.90;87.70
9810;DHT22;4944;52.514;13.192;2023-05-14T11:14:58;19.90;87.60
9810;DHT22;4944;52.514;13.192;2023-05-14T11:17:25;19.90;87.60
9810;DHT22;4944;52.514;13.192;2023-05-14T11:19:53;20.00;87.40
9810;DHT22;4944;52.514;13.192;2023-05-14T11:22:20;20.00;86.60
9810;DHT22;4944;52.514;13.192;2023-05-14T11:24:47;20.00;86.00
9810;DHT22;4944;52.514;13.192;2023-05-14T11:27:14;20.00;87.10
9810;DHT22;4944;52.514;13.192;2023-05-14T11:29:43;20.10;89.00
9810;DHT22;4944;52.514;13.192;2023-05-14T11:32:12;20.10;89.30
9810;DHT22;4944;52.514;13.192;2023-05-14T11:34:40;20.10;88.70
9810;DHT22;4944;52.514;13.192;2023-05-14T11:37:07;20.10;87.70
9810;DHT22;4944;52.514;13.192;2023-05-14T11:39:35;20.20;87.60
9810;DHT22;4944;52.514;13.192;2023-05-14T11:42:03;20.20;86.90
9810;DHT22;4944;52.514;13.192;2023-05-14T11:44:30;20.20;87.30
9810;DHT22;4944;52.514;13.192;2023-05-14T11:46:58;20.10;87.80
9810;DHT22;4944;52.514;13.192;2023-05-14T11:49:27;20.10;87.20
9810;DHT22;4944;52.514;13.192;2023-05-14T11:51:58;20.10;88.00
9810;DHT22;4944;52.514;13.192;2023-05-14T11:54:25;20.10;89.40
9810;DHT22;4944;52.514;13.192;2023-05-14T11:56:53;20.00;89.50
9810;DHT22;4944;52.514;13.192;2023-05-14T11:59:22;20.00;89.50
9810;DHT22;4944;52.514;13.192;2023-05-14T12:01:49;20.10;90.30
9810;DHT22;4944;52.514;13.192;2023-05-14T12:04:17;20.10;89.90
9810;DHT22;4944;52.514;13.192;2023-05-14T12:06:48;20.10;89.60
9810;DHT22;4944;52.514;13.192;2023-05-14T12:09:15;20.20;89.10
9810;DHT22;4944;52.514;13.192;2023-05-14T12:11:43;20.20;89.90
9810;DHT22;4944;52.514;13.192;2023-05-14T12:14:13;20.30;89.90
9810;DHT22;4944;52.514;13.192;2023-05-14T12:16:41;20.30;88.20
9810;DHT22;4944;52.514;13.192;2023-05-14T12:19:09;20.30;88.40
9810;DHT22;4944;52.514;13.192;2023-05-14T12:21:37;20.30;89.00
9810;DHT22;4944;52.514;13.192;2023-05-14T12:24:08;20.30;87.90
9810;DHT22;4944;52.514;13.192;2023-05-14T12:26:36;20.30;87.90
9810;DHT22;4944;52.514;13.192;2023-05-14T12:29:04;20.30;88.20
9810;DHT22;4944;52.514;13.192;2023-05-14T12:31:33;20.20;87.90
9810;DHT22;4944;52.514;13.192;2023-05-14T12:34:01;20.20;87.50
9810;DHT22;4944;52.514;13.192;2023-05-14T12:36:29;20.30;88.10
9810;DHT22;4944;52.514;13.192;2023-05-14T12:38:58;20.30;88.10
9810;DHT22;4944;52.514;13.192;2023-05-14T12:41:27;20.30;87.30
9810;DHT22;4944;52.514;13.192;2023-05-14T12:43:54;20.30;86.70
9810;DHT22;4944;52.514;13.192;2023-05-14T12:46:22;20.40;87.30
9810;DHT22;4944;52.514;13.192;2023-05-14T12:48:49;20.50;87.90
9810;DHT22;4944;52.514;13.192;2023-05-14T12:51:15;20.60;88.50
9810;DHT22;4944;52.514;13.192;2023-05-14T12:53:42;20.60;88.00
9810;DHT22;4944;52.514;13.192;2023-05-14T12:56:09;20.70;88.30
9810;DHT22;4944;52.514;13.192;2023-05-14T12:58:38;20.80;89.00
9810;DHT22;4944;52.514;13.192;2023-05-14T13:01:07;20.90;88.10
9810;DHT22;4944;52.514;13.192;2023-05-14T13:03:34;21.00;87.70
9810;DHT22;4944;52.514;13.192;2023-05-14T13:06:01;21.10;87.60
9810;DHT22;4944;52.514;13.192;2023-05-14T13:08:28;21.30;87.30
9810;DHT22;4944;52.514;13.192;2023-05-14T13:10:55;21.30;88.90
9810;DHT22;4944;52.514;13.192;2023-05-14T13:13:22;21.30;87.80
9810;DHT22;4944;52.514;13.192;2023-05-14T13:15:52;21.30;85.70
9810;DHT22;4944;52.514;13.192;2023-05-14T13:18:18;21.30;85.90
9810;DHT22;4944;52.514;13.192;2023-05-14T13:20:46;21.30;87.00
9810;DHT22;4944;52.514;13.192;2023-05-14T13:23:13;21.30;86.60
9810;DHT22;4944;52.514;13.192;2023-05-14T13:25:40;21.30;87.80
9810;DHT22;4944;52.514;13.192;2023-05-14T13:28:07;21.20;86.90
9810;DHT22;4944;52.514;13.192;2023-05-14T13:30:34;21.20;87.60
9810;DHT22;4944;52.514;13.192;2023-05-14T13:33:02;21.20;86.60
9810;DHT22;4944;52.514;13.192;2023-05-14T13:35:29;21.20;87.20
9810;DHT22;4944;52.514;13.192;2023-05-14T13:37:56;21.20;86.60
9810;DHT22;4944;52.514;13.192;2023-05-14T13:40:23;21.20;87.10
9810;DHT22;4944;52.514;13.192;2023-05-14T13:42:50;21.20;85.70
9810;DHT22;4944;52.514;13.192;2023-05-14T13:45:17;21.10;85.20
9810;DHT22;4944;52.514;13.192;2023-05-14T13:47:44;21.10;84.40
9810;DHT22;4944;52.514;13.192;2023-05-14T13:50:12;21.00;85.70
9810;DHT22;4944;52.514;13.192;2023-05-14T13:52:39;20.90;86.10
9810;DHT22;4944;52.514;13.192;2023-05-14T13:55:07;20.90;84.70
9810;DHT22;4944;52.514;13.192;2023-05-14T13:57:33;20.80;86.30
9810;DHT22;4944;52.514;13.192;2023-05-14T14:00:00;20.80;84.60
9810;DHT22;4944;52.514;13.192;2023-05-14T14:02:28;20.80;84.70
9810;DHT22;4944;52.514;13.192;2023-05-14T14:04:55;20.80;84.80
9810;DHT22;4944;52.514;13.192;2023-05-14T14:07:23;20.80;84.20
9810;DHT22;4944;52.514;13.192;2023-05-14T14:09:50;20.80;84.00
9810;DHT22;4944;52.514;13.192;2023-05-14T14:12:19;20.80;83.80
9810;DHT22;4944;52.514;13.192;2023-05-14T14:14:46;20.80;83.30
9810;DHT22;4944;52.514;13.192;2023-05-14T14:17:13;20.80;82.80
9810;DHT22;4944;52.514;13.192;2023-05-14T14:19:40;20.80;83.80
9810;DHT22;4944;52.514;13.192;2023-05-14T14:22:07;20.70;83.70
9810;DHT22;4944;52.514;13.192;2023-05-14T14:24:35;20.70;84.90
9810;DHT22;4944;52.514;13.192;2023-05-14T14:27:02;20.70;85.10
9810;DHT22;4944;52.514;13.192;2023-05-14T14:29:29;20.60;85.30
9810;DHT22;4944;52.514;13.192;2023-05-14T14:31:56;20.60;85.20
9810;DHT22;4944;52.514;13.192;2023-05-14T14:34:23;20.60;85.60
9810;DHT22;4944;52.514;13.192;2023-05-14T14:36:50;20.60;83.70
9810;DHT22;4944;52.514;13.192;2023-05-14T14:39:17;20.50;82.70
9810;DHT22;4944;52.514;13.192;2023-05-14T14:41:45;20.50;83.40
9810;DHT22;4944;52.514;13.192;2023-05-14T14:44:12;20.50;83.70
9810;DHT22;4944;52.514;13.192;2023-05-14T14:46:39;20.50;84.50
9810;DHT22;4944;52.514;13.192;2023-05-14T14:49:07;20.50;84.80
9810;DHT22;4944;52.514;13.192;2023-05-14T14:51:37;20.50;84.20
9810;DHT22;4944;52.514;13.192;2023-05-14T14:54:05;20.50;83.90
9810;DHT22;4944;52.514;13.192;2023-05-14T14:56:32;20.60;84.00
9810;DHT22;4944;52.514;13.192;2023-05-14T14:59:01;20.50;82.40
9810;DHT22;4944;52.514;13.192;2023-05-14T15:01:28;20.60;83.00
9810;DHT22;4944;52.514;13.192;2023-05-14T15:03:55;20.60;82.80
9810;DHT22;4944;52.514;13.192;2023-05-14T15:06:22;20.60;82.50
9810;DHT22;4944;52.514;13.192;2023-05-14T15:08:48;20.60;83.30
9810;DHT22;4944;52.514;13.192;2023-05-14T15:11:15;20.70;84.20
9810;DHT22;4944;52.514;13.192;2023-05-14T15:13:42;20.70;84.20
9810;DHT22;4944;52.514;13.192;2023-05-14T15:16:10;20.70;83.30
9810;DHT22;4944;52.514;13.192;2023-05-14T15:18:38;20.70;83.50
9810;DHT22;4944;52.514;13.192;2023-05-14T15:21:05;20.70;82.40
9810;DHT22;4944;52.514;13.192;2023-05-14T15:23:32;20.80;82.30
9810;DHT22;4944;52.514;13.192;2023-05-14T15:25:59;20.80;83.10
9810;DHT22;4944;52.514;13.192;2023-05-14T15:28:25;20.80;82.70
9810;DHT22;4944;52.514;13.192;2023-05-14T15:30:52;20.80;83.00
9810;DHT22;4944;52.514;13.192;2023-05-14T15:33:21;20.80;83.10
9810;DHT22;4944;52.514;13.192;2023-05-14T15:35:48;20.90;83.90
9810;DHT22;4944;52.514;13.192;2023-05-14T15:38:15;20.90;84.00
9810;DHT22;4944;52.514;13.192;2023-05-14T15:40:42;20.90;81.90
9810;DHT22;4944;52.514;13.192;2023-05-14T15:43:09;21.00;81.60
9810;DHT22;4944;52.514;13.192;2023-05-14T15:45:36;21.00;81.20
9810;DHT22;4944;52.514;13.192;2023-05-14T15:48:03;21.00;81.90